Time;durP1;ratioP1;P1;durP2;ratioP2;P2;SDS_P1;SDS_P2;PMS_P1;PMS_P2;Temp;Humidity;BMP_temperature;BMP_pressure;BME280_temperature;BME280_humidity;BME280_pressure;Samples;Min_cycle;Max_cycle;Signal;HPM_P1;HPM_P2
2023/08/07 00:00:09;;;;;;;9.43;4.35;;;12.50;99.90;;;;;;5043729;28;20052;-57
2023/08/07 00:02:37;;;;;;;6.28;3.60;;;12.50;99.90;;;;;;5049015;28;20048;-57
2023/08/07 00:05:08;;;;;;;11.20;3.83;;;12.40;99.90;;;;;;5049810;28;20056;-57
2023/08/07 00:07:36;;;;;;;9.52;3.80;;;12.40;99.90;;;;;;5046564;28;20045;-57
2023/08/07 00:10:04;;;;;;;7.53;3.50;;;12.40;99.90;;;;;;5046555;28;20044;-57
2023/08/07 00:12:32;;;;;;;5.65;3.25;;;12.30;99.90;;;;;;5048807;28;20052;-57
2023/08/07 00:15:01;;;;;;;7.25;3.15;;;12.30;99.90;;;;;;5045270;28;20049;-57
2023/08/07 00:17:29;;;;;;;6.10;2.88;;;12.30;99.90;;;;;;5045586;28;20511;-57
2023/08/07 00:20:00;;;;;;;8.27;3.00;;;12.20;99.90;;;;;;5041145;28;20053;-57
2023/08/07 00:22:28;;;;;;;4.93;3.13;;;12.20;99.90;;;;;;5044571;28;20476;-57
2023/08/07 00:24:56;;;;;;;5.97;2.80;;;12.20;99.90;;;;;;5040635;28;20510;-57
2023/08/07 00:27:24;;;;;;;5.80;3.53;;;12.10;99.90;;;;;;5039870;28;20037;-57
2023/08/07 00:29:52;;;;;;;6.32;2.85;;;12.10;99.90;;;;;;5042043;28;20037;-57
2023/08/07 00:32:19;;;;;;;5.07;2.90;;;12.00;99.90;;;;;;5034650;28;20052;-57
2023/08/07 00:34:47;;;;;;;8.02;3.08;;;11.90;99.90;;;;;;5046199;28;20048;-57
2023/08/07 00:37:15;;;;;;;6.25;2.72;;;11.90;99.90;;;;;;5044178;28;20037;-57
2023/08/07 00:39:42;;;;;;;7.47;2.33;;;11.90;99.90;;;;;;5048131;28;20052;-56
2023/08/07 00:42:10;;;;;;;4.63;2.47;;;11.90;99.90;;;;;;5048247;28;20802;-57
2023/08/07 00:44:38;;;;;;;4.38;2.08;;;11.80;99.90;;;;;;5046157;28;20056;-57
2023/08/07 00:47:07;;;;;;;4.07;2.10;;;11.70;99.90;;;;;;5049210;28;20045;-57
2023/08/07 00:49:35;;;;;;;6.93;1.98;;;11.70;99.90;;;;;;5047834;28;20067;-57
2023/08/07 00:52:04;;;;;;;3.90;2.35;;;11.70;99.90;;;;;;5047487;28;20068;-56
2023/08/07 00:54:32;;;;;;;2.55;1.73;;;11.60;99.90;;;;;;5044246;28;20045;-57
2023/08/07 00:57:11;;;;;;;2.58;1.63;;;11.60;99.90;;;;;;5047688;28;20052;-57
2023/08/07 00:59:40;;;;;;;6.68;2.20;;;11.60;99.90;;;;;;5047084;28;20515;-57
2023/08/07 01:02:09;;;;;;;4.60;1.75;;;11.50;99.90;;;;;;5046218;28;20055;-57
2023/08/07 01:04:37;;;;;;;3.20;1.87;;;11.50;99.90;;;;;;5049777;28;20049;-57
2023/08/07 01:07:05;;;;;;;4.93;2.00;;;11.40;99.90;;;;;;5044104;28;20052;-57
2023/08/07 01:09:33;;;;;;;5.13;1.95;;;11.40;99.90;;;;;;5044889;28;20044;-57
2023/08/07 01:12:10;;;;;;;7.15;2.20;;;11.40;99.90;;;;;;5048571;28;20044;-57
2023/08/07 01:14:48;;;;;;;3.78;2.42;;;11.30;99.90;;;;;;5045163;28;20044;-57
2023/08/07 01:17:17;;;;;;;6.68;2.83;;;11.30;99.90;;;;;;5042178;28;20052;-57
2023/08/07 01:19:45;;;;;;;4.60;1.95;;;11.30;99.90;;;;;;5044737;28;20048;-56
2023/08/07 01:22:15;;;;;;;2.83;1.95;;;11.30;99.90;;;;;;5045882;28;20045;-57
2023/08/07 01:24:45;;;;;;;2.60;1.60;;;11.30;99.90;;;;;;5044550;28;20052;-56
2023/08/07 01:27:19;;;;;;;3.10;1.70;;;11.20;99.90;;;;;;5029924;28;20037;-57
2023/08/07 01:30:13;;;;;;;6.82;2.10;;;11.30;99.90;;;;;;5044639;28;20044;-56
2023/08/07 01:33:08;;;;;;;7.65;1.73;;;11.20;99.90;;;;;;5041777;28;20037;-57
2023/08/07 01:35:44;;;;;;;5.07;2.13;;;11.20;99.90;;;;;;5050208;28;20033;-57
2023/08/07 01:38:14;;;;;;;2.85;1.33;;;11.20;99.90;;;;;;5047240;28;20045;-57
2023/08/07 01:40:43;;;;;;;3.80;1.83;;;11.20;99.90;;;;;;5047299;28;20049;-57
2023/08/07 01:43:11;;;;;;;2.40;1.77;;;11.10;99.90;;;;;;5047611;28;20041;-57
2023/08/07 01:45:39;;;;;;;3.42;1.55;;;11.10;99.90;;;;;;5043764;28;20037;-57
2023/08/07 01:48:08;;;;;;;5.47;1.95;;;11.10;99.90;;;;;;5048264;28;20048;-57
2023/08/07 01:50:36;;;;;;;1.60;1.42;;;11.10;99.90;;;;;;5050234;28;20036;-57
2023/08/07 01:53:03;;;;;;;3.20;1.60;;;11.10;99.90;;;;;;5051366;28;20511;-57
2023/08/07 01:55:31;;;;;;;2.13;1.40;;;11.10;99.90;;;;;;5050694;28;20072;-57
2023/08/07 01:57:59;;;;;;;2.75;1.45;;;11.10;99.90;;;;;;5050464;28;20052;-57
2023/08/07 02:00:27;;;;;;;2.33;1.42;;;11.20;99.90;;;;;;5049914;28;20040;-57
2023/08/07 02:02:54;;;;;;;7.10;1.67;;;11.20;99.90;;;;;;5047257;28;20067;-57
2023/08/07 02:05:22;;;;;;;3.38;1.60;;;11.20;99.90;;;;;;5052250;28;20531;-57
2023/08/07 02:07:50;;;;;;;2.92;1.30;;;11.10;99.90;;;;;;5048657;28;20049;-57
2023/08/07 02:10:20;;;;;;;6.00;2.00;;;11.30;99.90;;;;;;5049282;28;20416;-57
2023/08/07 02:12:49;;;;;;;5.93;1.92;;;11.30;99.90;;;;;;5049239;28;20048;-57
2023/08/07 02:15:16;;;;;;;3.55;1.80;;;11.30;99.90;;;;;;5046284;28;20506;-57
2023/08/07 02:17:44;;;;;;;4.95;1.67;;;11.30;99.90;;;;;;5030633;28;20049;-57
2023/08/07 02:20:12;;;;;;;4.38;1.63;;;11.20;99.90;;;;;;5045886;28;20048;-57
2023/08/07 02:22:40;;;;;;;4.15;1.50;;;11.30;99.90;;;;;;5047217;28;20041;-57
2023/08/07 02:25:08;;;;;;;4.40;2.00;;;11.30;99.90;;;;;;5049223;28;20041;-57
2023/08/07 02:27:38;;;;;;;4.57;1.60;;;11.30;99.90;;;;;;5046280;28;20048;-57
2023/08/07 02:30:07;;;;;;;4.07;2.10;;;11.20;99.90;;;;;;5049683;28;20485;-57
2023/08/07 02:32:34;;;;;;;5.43;1.95;;;11.20;99.90;;;;;;5047627;28;20060;-57
2023/08/07 02:35:02;;;;;;;11.43;3.33;;;11.20;99.90;;;;;;5050947;28;20480;-57
2023/08/07 02:37:30;;;;;;;1.90;1.30;;;11.10;99.90;;;;;;5045610;28;20053;-57
2023/08/07 02:39:58;;;;;;;3.88;1.40;;;11.10;99.90;;;;;;5030582;28;20043;-57
2023/08/07 02:42:26;;;;;;;2.78;1.20;;;11.10;99.90;;;;;;5049648;28;20052;-57
2023/08/07 02:44:54;;;;;;;3.17;1.80;;;11.10;99.90;;;;;;5049802;28;20049;-57
2023/08/07 02:47:21;;;;;;;4.32;2.10;;;11.10;99.90;;;;;;5046805;28;20460;-57
2023/08/07 02:49:49;;;;;;;1.95;1.30;;;11.10;99.90;;;;;;5048087;28;20044;-57
2023/08/07 02:52:18;;;;;;;3.97;1.70;;;11.10;99.90;;;;;;5016398;28;20424;-57
2023/08/07 02:54:46;;;;;;;2.65;1.17;;;11.00;99.90;;;;;;5044685;28;20052;-57
2023/08/07 02:57:13;;;;;;;5.07;1.65;;;11.00;99.90;;;;;;5048879;28;20045;-58
2023/08/07 02:59:41;;;;;;;2.22;1.50;;;11.00;99.90;;;;;;5048967;28;20048;-58
2023/08/07 03:02:09;;;;;;;3.03;2.22;;;11.00;99.90;;;;;;5048416;28;20041;-57
2023/08/07 03:04:36;;;;;;;6.47;1.50;;;11.00;99.90;;;;;;5052313;28;20041;-57
2023/08/07 03:07:04;;;;;;;2.25;1.42;;;11.00;99.90;;;;;;5042680;28;20042;-57
2023/08/07 03:09:32;;;;;;;4.15;2.30;;;11.00;99.90;;;;;;5053691;28;20056;-57
2023/08/07 03:12:03;;;;;;;5.50;1.98;;;11.00;99.90;;;;;;5053131;28;20112;-57
2023/08/07 03:14:32;;;;;;;4.47;2.30;;;;;;;;;;5053187;28;20044;-57
2023/08/07 03:16:59;;;;;;;5.88;2.60;;;11.00;99.90;;;;;;5052814;28;20087;-57
2023/08/07 03:19:27;;;;;;;5.70;2.90;;;11.00;99.90;;;;;;5048999;28;20044;-57
2023/08/07 03:21:54;;;;;;;8.45;3.15;;;11.00;99.90;;;;;;5052615;28;20116;-57
2023/08/07 03:24:23;;;;;;;5.60;2.92;;;;;;;;;;5052734;28;20079;-57
2023/08/07 03:26:51;;;;;;;5.70;3.30;;;11.10;99.90;;;;;;5050030;28;20107;-57
2023/08/07 03:29:18;;;;;;;7.45;2.63;;;11.10;99.90;;;;;;5049008;28;20040;-57
2023/08/07 03:31:47;;;;;;;9.80;2.75;;;11.10;99.90;;;;;;5052790;28;20033;-57
2023/08/07 03:34:15;;;;;;;3.97;2.28;;;11.20;99.90;;;;;;5056756;28;20051;-57
2023/08/07 03:36:43;;;;;;;5.68;2.35;;;11.20;99.90;;;;;;5049876;28;20036;-57
2023/08/07 03:39:12;;;;;;;5.97;1.77;;;11.30;99.90;;;;;;5052588;28;20049;-57
2023/08/07 03:41:39;;;;;;;5.18;1.40;;;11.30;99.90;;;;;;5053849;28;20547;-57
2023/08/07 03:44:09;;;;;;;4.97;1.48;;;11.30;99.90;;;;;;5048872;28;20064;-57
2023/08/07 03:46:37;;;;;;;3.83;1.52;;;11.30;99.90;;;;;;5052536;28;20049;-57
2023/08/07 03:49:06;;;;;;;4.90;1.45;;;11.40;99.90;;;;;;5053517;28;20041;-57
2023/08/07 03:51:33;;;;;;;3.28;1.40;;;11.30;99.90;;;;;;5048172;28;20060;-57
2023/08/07 03:54:02;;;;;;;2.55;1.30;;;11.40;99.90;;;;;;5017526;28;20045;-57
2023/08/07 03:56:36;;;;;;;3.50;1.40;;;11.50;99.90;;;;;;5052204;28;20128;-57
2023/08/07 03:59:04;;;;;;;3.03;1.52;;;11.50;99.90;;;;;;5033421;28;20060;-57
2023/08/07 04:01:31;;;;;;;2.45;1.50;;;11.50;99.90;;;;;;5051986;28;20033;-57
2023/08/07 04:03:59;;;;;;;4.72;1.30;;;11.50;99.90;;;;;;5054941;28;20036;-57
2023/08/07 04:06:28;;;;;;;1.92;1.17;;;11.50;99.90;;;;;;5049835;28;20052;-58
2023/08/07 04:08:56;;;;;;;1.83;1.38;;;11.50;99.90;;;;;;5049495;28;20048;-58
2023/08/07 04:11:23;;;;;;;2.83;1.00;;;11.40;99.90;;;;;;5051430;28;20044;-57
2023/08/07 04:13:51;;;;;;;4.45;1.20;;;11.30;99.90;;;;;;5051058;28;20041;-57
2023/08/07 04:16:19;;;;;;;2.33;1.20;;;11.30;99.90;;;;;;5035580;28;20041;-57
2023/08/07 04:18:46;;;;;;;4.55;1.27;;;11.30;99.90;;;;;;5049761;28;20053;-58
2023/08/07 04:21:14;;;;;;;2.15;1.30;;;11.20;99.90;;;;;;5048013;28;20045;-57
2023/08/07 04:23:41;;;;;;;2.50;1.45;;;11.20;99.90;;;;;;5046187;28;20045;-57
2023/08/07 04:26:10;;;;;;;4.68;1.35;;;11.20;99.90;;;;;;5051122;28;20041;-57
2023/08/07 04:28:37;;;;;;;2.22;1.30;;;11.10;99.90;;;;;;5045745;28;20064;-57
2023/08/07 04:31:05;;;;;;;3.42;1.67;;;11.00;99.90;;;;;;5050882;28;20590;-57
2023/08/07 04:33:33;;;;;;;3.95;2.60;;;11.00;99.90;;;;;;5046372;28;20049;-57
2023/08/07 04:36:00;;;;;;;2.55;1.30;;;10.90;99.90;;;;;;5049648;28;20040;-57
2023/08/07 04:38:28;;;;;;;1.88;1.38;;;10.90;99.90;;;;;;5048136;28;20049;-57
2023/08/07 04:40:55;;;;;;;3.13;1.33;;;10.90;99.90;;;;;;5048802;28;20041;-57
2023/08/07 04:43:23;;;;;;;3.05;1.45;;;10.90;99.90;;;;;;5049838;28;20041;-57
2023/08/07 04:45:51;;;;;;;3.63;1.55;;;10.80;99.90;;;;;;5050470;28;20049;-57
2023/08/07 04:48:20;;;;;;;3.42;1.83;;;10.80;99.90;;;;;;5042369;28;20048;-57
2023/08/07 04:50:51;;;;;;;2.47;1.75;;;10.80;99.90;;;;;;5029472;28;20048;-57
2023/08/07 04:53:19;;;;;;;2.95;1.95;;;10.80;99.90;;;;;;5045279;28;20049;-57
2023/08/07 04:55:46;;;;;;;4.20;2.30;;;10.80;99.90;;;;;;5048619;28;20060;-57
2023/08/07 04:58:14;;;;;;;7.22;1.80;;;10.80;99.90;;;;;;5047010;28;20060;-57
2023/08/07 05:00:42;;;;;;;2.35;1.70;;;10.80;99.90;;;;;;5046194;28;20626;-57
2023/08/07 05:03:10;;;;;;;5.13;2.17;;;10.80;99.90;;;;;;5035172;28;20044;-57
2023/08/07 05:05:37;;;;;;;2.58;1.98;;;10.80;99.90;;;;;;5045829;28;20054;-57
2023/08/07 05:08:05;;;;;;;2.95;2.13;;;10.90;99.90;;;;;;5044304;28;20052;-57
2023/08/07 05:10:36;;;;;;;3.80;1.75;;;10.80;99.90;;;;;;5041682;28;20060;-57
2023/08/07 05:13:03;;;;;;;6.57;2.20;;;10.80;99.90;;;;;;5043384;28;20041;-57
2023/08/07 05:15:31;;;;;;;3.35;1.80;;;10.80;99.90;;;;;;5036916;28;20032;-57
2023/08/07 05:17:59;;;;;;;6.97;2.10;;;10.80;99.90;;;;;;5031373;28;20380;-57
2023/08/07 05:20:27;;;;;;;3.30;2.00;;;10.80;99.90;;;;;;5043599;28;20049;-57
2023/08/07 05:22:55;;;;;;;3.42;2.05;;;10.80;99.90;;;;;;5044253;28;20136;-58
2023/08/07 05:25:23;;;;;;;4.47;1.90;;;10.80;99.90;;;;;;5039214;28;20057;-57
2023/08/07 05:27:51;;;;;;;4.53;2.22;;;10.80;99.90;;;;;;5046214;28;20049;-57
2023/08/07 05:30:19;;;;;;;5.57;2.70;;;11.10;99.90;;;;;;5041721;28;20045;-57
2023/08/07 05:32:46;;;;;;;4.00;2.17;;;10.80;99.90;;;;;;5043231;28;20049;-57
2023/08/07 05:35:14;;;;;;;7.53;2.17;;;10.80;99.90;;;;;;5039580;28;20052;-58
2023/08/07 05:37:42;;;;;;;3.28;2.05;;;10.80;99.90;;;;;;5044890;28;20060;-57
2023/08/07 05:40:11;;;;;;;3.22;1.95;;;10.80;99.90;;;;;;5044098;28;20045;-57
2023/08/07 05:42:42;;;;;;;4.80;2.03;;;10.80;99.90;;;;;;5046477;28;20056;-57
2023/08/07 05:45:10;;;;;;;2.45;1.80;;;10.90;99.90;;;;;;5046366;28;20045;-57
2023/08/07 05:47:39;;;;;;;6.03;2.13;;;;;;;;;;5046103;28;20029;-57
2023/08/07 05:50:07;;;;;;;4.20;1.60;;;10.90;99.90;;;;;;5040774;28;20055;-57
2023/08/07 05:52:35;;;;;;;3.15;2.45;;;11.00;99.90;;;;;;5046460;28;20571;-57
2023/08/07 05:55:07;;;;;;;4.07;1.90;;;11.00;99.90;;;;;;5044798;28;20041;-57
2023/08/07 05:57:35;;;;;;;4.15;1.88;;;11.10;99.90;;;;;;5045165;28;20052;-57
2023/08/07 06:00:04;;;;;;;4.70;1.80;;;11.10;99.90;;;;;;5041409;28;20060;-57
2023/08/07 06:02:39;;;;;;;3.17;1.75;;;11.20;99.90;;;;;;5024074;28;20055;-57
2023/08/07 06:05:07;;;;;;;4.75;1.55;;;11.20;99.90;;;;;;5041620;28;20404;-57
2023/08/07 06:07:35;;;;;;;5.38;1.60;;;11.20;99.90;;;;;;5046240;28;20048;-57
2023/08/07 06:10:05;;;;;;;6.53;1.88;;;11.30;99.90;;;;;;5045015;28;20048;-57
2023/08/07 06:12:32;;;;;;;5.10;1.60;;;11.40;99.90;;;;;;5046008;28;20067;-57
2023/08/07 06:15:00;;;;;;;2.30;1.63;;;11.50;99.90;;;;;;5044176;28;20056;-57
2023/08/07 06:17:28;;;;;;;6.20;2.03;;;11.50;99.90;;;;;;5046098;28;20049;-57
2023/08/07 06:19:56;;;;;;;3.50;1.75;;;11.60;99.90;;;;;;5045436;28;20049;-57
2023/08/07 06:22:23;;;;;;;4.32;1.77;;;11.60;99.90;;;;;;5044018;28;20041;-57
2023/08/07 06:24:51;;;;;;;3.63;1.95;;;11.70;99.90;;;;;;5043586;28;20084;-57
2023/08/07 06:27:21;;;;;;;4.38;1.50;;;11.90;99.90;;;;;;5037889;28;20045;-57
2023/08/07 06:29:49;;;;;;;3.15;2.10;;;12.00;99.90;;;;;;5044422;28;20041;-57
2023/08/07 06:32:18;;;;;;;5.43;2.00;;;12.30;99.90;;;;;;5038337;28;20064;-57
2023/08/07 06:34:46;;;;;;;7.07;1.70;;;12.30;99.90;;;;;;5037785;28;20473;-57
2023/08/07 06:37:14;;;;;;;7.20;1.88;;;12.60;99.90;;;;;;5042439;28;20294;-57
2023/08/07 06:39:41;;;;;;;8.38;1.85;;;12.70;99.90;;;;;;5046002;28;20504;-57
2023/08/07 06:42:09;;;;;;;5.03;1.88;;;12.70;99.90;;;;;;5049037;28;20052;-58
2023/08/07 06:44:37;;;;;;;4.03;1.45;;;12.80;99.90;;;;;;5048407;28;20041;-58
2023/08/07 06:47:05;;;;;;;6.45;1.80;;;12.80;99.90;;;;;;5027426;28;20053;-58
2023/08/07 06:49:37;;;;;;;5.65;2.03;;;12.90;99.90;;;;;;5043412;28;20044;-57
2023/08/07 06:52:05;;;;;;;5.47;1.60;;;12.90;99.90;;;;;;5040865;28;20053;-57
2023/08/07 06:54:33;;;;;;;4.97;1.60;;;12.90;99.90;;;;;;5044759;28;20051;-57
2023/08/07 06:57:01;;;;;;;4.97;2.08;;;12.80;99.90;;;;;;5046899;28;20477;-57
2023/08/07 06:59:29;;;;;;;3.83;1.60;;;12.80;99.90;;;;;;5049066;28;20530;-58
2023/08/07 07:01:57;;;;;;;4.47;1.83;;;12.80;99.90;;;;;;5052412;28;20521;-57
2023/08/07 07:04:25;;;;;;;5.45;1.80;;;12.80;99.90;;;;;;5046341;28;20033;-57
2023/08/07 07:06:53;;;;;;;4.18;1.80;;;12.80;99.90;;;;;;5045558;28;20045;-57
2023/08/07 07:09:20;;;;;;;3.78;1.67;;;12.70;99.90;;;;;;5047827;28;20060;-57
2023/08/07 07:11:50;;;;;;;2.87;2.00;;;12.80;99.90;;;;;;5049085;28;20041;-58
2023/08/07 07:14:17;;;;;;;2.75;1.58;;;12.80;99.90;;;;;;5043893;28;20063;-58
2023/08/07 07:16:45;;;;;;;4.55;1.80;;;12.90;99.90;;;;;;5049911;28;20041;-57
2023/08/07 07:19:13;;;;;;;6.80;2.53;;;13.00;99.90;;;;;;5043919;28;20055;-57
2023/08/07 07:21:41;;;;;;;6.85;1.95;;;13.00;99.90;;;;;;5047837;28;20045;-57
2023/08/07 07:24:09;;;;;;;4.28;1.85;;;13.10;99.90;;;;;;5043995;28;20056;-58
2023/08/07 07:26:36;;;;;;;4.45;2.13;;;13.20;99.90;;;;;;5050438;28;20613;-58
2023/08/07 07:29:04;;;;;;;3.20;1.83;;;13.20;99.90;;;;;;5050451;28;20044;-57
2023/08/07 07:31:31;;;;;;;4.75;1.80;;;13.30;99.90;;;;;;5048330;28;20056;-58
2023/08/07 07:33:59;;;;;;;6.53;1.52;;;13.30;99.90;;;;;;5045197;28;20045;-58
2023/08/07 07:36:27;;;;;;;7.80;1.90;;;13.30;99.90;;;;;;5049046;28;20041;-58
2023/08/07 07:38:55;;;;;;;9.20;2.70;;;13.40;99.90;;;;;;5044572;28;20515;-57
2023/08/07 07:41:23;;;;;;;6.28;2.00;;;13.40;99.90;;;;;;5046026;28;20044;-57
2023/08/07 07:43:51;;;;;;;4.60;1.55;;;13.50;99.90;;;;;;5043933;28;20048;-58
2023/08/07 07:46:23;;;;;;;4.35;2.20;;;13.60;99.90;;;;;;5044243;28;20056;-57
2023/08/07 07:48:51;;;;;;;5.35;1.98;;;13.70;99.90;;;;;;5046419;28;20423;-57
2023/08/07 07:51:19;;;;;;;2.45;1.60;;;13.70;99.90;;;;;;5045801;28;20056;-57
2023/08/07 07:53:47;;;;;;;5.45;1.90;;;;;;;;;;5045109;28;20213;-57
2023/08/07 07:56:34;;;;;;;6.15;1.45;;;14.00;99.90;;;;;;5044643;28;20045;-57
2023/08/07 07:59:02;;;;;;;3.88;1.40;;;14.20;99.90;;;;;;5041716;28;20036;-57
2023/08/07 08:01:30;;;;;;;4.18;2.28;;;14.40;99.90;;;;;;5051122;28;20052;-57
2023/08/07 08:03:57;;;;;;;2.92;1.65;;;14.60;99.90;;;;;;5048008;28;20041;-57
2023/08/07 08:06:26;;;;;;;5.38;1.50;;;14.70;99.90;;;;;;5045171;28;20049;-57
2023/08/07 08:08:54;;;;;;;5.90;1.70;;;14.80;99.90;;;;;;5052762;28;20404;-57
2023/08/07 08:11:21;;;;;;;4.90;1.80;;;15.00;99.90;;;;;;5030784;28;20493;-57
2023/08/07 08:13:49;;;;;;;4.82;1.90;;;15.10;99.90;;;;;;5047155;28;20041;-57
2023/08/07 08:16:18;;;;;;;3.47;1.67;;;15.20;99.90;;;;;;5045938;28;20045;-57
2023/08/07 08:18:46;;;;;;;5.57;1.67;;;15.30;99.90;;;;;;5051169;28;20045;-57
2023/08/07 08:21:14;;;;;;;3.90;1.70;;;15.30;99.90;;;;;;5041622;28;20051;-57
2023/08/07 08:23:41;;;;;;;3.30;1.52;;;15.30;99.90;;;;;;5047416;28;20044;-57
2023/08/07 08:26:09;;;;;;;7.57;1.75;;;15.40;99.90;;;;;;5048639;28;20040;-57
2023/08/07 08:28:37;;;;;;;8.15;1.40;;;15.30;99.90;;;;;;5049215;28;20037;-57
2023/08/07 08:31:06;;;;;;;3.97;1.33;;;15.30;99.90;;;;;;5032503;28;20408;-57
2023/08/07 08:33:33;;;;;;;6.57;1.67;;;15.30;99.90;;;;;;5039959;28;20040;-57
2023/08/07 08:36:01;;;;;;;4.40;1.83;;;15.40;99.90;;;;;;5042876;28;20057;-57
2023/08/07 08:38:32;;;;;;;4.30;1.20;;;;;;;;;;5047939;28;20052;-57
2023/08/07 08:41:02;;;;;;;6.20;1.50;;;15.40;99.90;;;;;;5041911;28;20044;-57
2023/08/07 08:43:34;;;;;;;7.18;1.88;;;15.60;99.90;;;;;;5040021;28;20517;-57
2023/08/07 08:46:05;;;;;;;5.38;1.27;;;15.70;99.90;;;;;;5038792;28;20052;-57
2023/08/07 08:48:38;;;;;;;4.80;1.60;;;15.80;99.90;;;;;;5042071;28;20647;-57
2023/08/07 08:51:08;;;;;;;5.88;1.33;;;15.90;99.90;;;;;;5039781;28;20060;-57
2023/08/07 08:53:37;;;;;;;5.43;1.83;;;16.00;99.90;;;;;;5043102;28;20508;-57
2023/08/07 08:56:06;;;;;;;3.72;0.80;;;16.00;99.90;;;;;;5043763;28;20420;-57
2023/08/07 08:58:34;;;;;;;4.10;1.10;;;16.10;99.90;;;;;;5037848;28;20037;-58
2023/08/07 09:01:02;;;;;;;5.13;1.15;;;16.20;99.90;;;;;;5046968;28;20064;-58
2023/08/07 09:03:30;;;;;;;4.15;1.17;;;16.30;99.90;;;;;;5047380;28;20048;-58
2023/08/07 09:06:01;;;;;;;7.13;1.48;;;16.30;99.90;;;;;;5044358;28;20068;-58
2023/08/07 09:08:31;;;;;;;2.45;1.23;;;16.30;99.90;;;;;;5048104;28;20712;-58
2023/08/07 09:10:59;;;;;;;6.90;1.13;;;16.30;99.90;;;;;;5037034;28;20052;-58
2023/08/07 09:13:28;;;;;;;10.68;1.63;;;16.40;99.90;;;;;;5045806;28;20045;-58
2023/08/07 09:15:58;;;;;;;4.70;1.08;;;16.30;99.90;;;;;;5046797;28;20554;-58
2023/08/07 09:18:25;;;;;;;7.05;1.45;;;16.30;99.90;;;;;;5047077;28;20045;-59
2023/08/07 09:20:53;;;;;;;5.22;1.20;;;16.10;99.90;;;;;;5048461;28;20041;-58
2023/08/07 09:23:21;;;;;;;5.90;1.30;;;16.00;99.90;;;;;;5044249;28;20056;-58
2023/08/07 09:25:59;;;;;;;3.28;1.17;;;15.90;99.90;;;;;;5047296;28;20056;-58
2023/08/07 09:28:29;;;;;;;6.90;1.10;;;16.00;99.90;;;;;;5046661;28;20051;-58
2023/08/07 09:30:59;;;;;;;4.43;1.17;;;16.00;99.90;;;;;;5046269;28;20416;-59
2023/08/07 09:33:30;;;;;;;10.18;1.70;;;16.00;99.90;;;;;;5050626;28;20480;-59
2023/08/07 09:35:59;;;;;;;4.80;1.15;;;16.10;99.90;;;;;;5047064;28;20059;-58
2023/08/07 09:38:32;;;;;;;4.53;1.27;;;16.20;99.90;;;;;;5050874;28;20053;-58
2023/08/07 09:41:03;;;;;;;6.20;0.98;;;16.40;99.90;;;;;;5038470;28;20049;-58
2023/08/07 09:43:35;;;;;;;2.42;1.00;;;16.50;99.90;;;;;;5042638;28;20055;-58
2023/08/07 09:46:04;;;;;;;3.55;1.45;;;16.70;99.90;;;;;;5043110;28;20044;-58
2023/08/07 09:48:42;;;;;;;9.32;1.35;;;16.80;99.90;;;;;;5048993;28;20041;-58
2023/08/07 09:51:11;;;;;;;7.18;0.98;;;16.90;99.90;;;;;;5047187;28;20404;-58
2023/08/07 09:53:39;;;;;;;5.40;1.05;;;16.90;99.90;;;;;;5047713;28;20044;-59
2023/08/07 09:56:07;;;;;;;2.65;1.00;;;17.10;99.90;;;;;;5043828;28;20224;-59
2023/08/07 09:58:34;;;;;;;4.43;1.20;;;17.30;99.90;;;;;;5047846;28;20049;-58
2023/08/07 10:01:09;;;;;;;2.83;1.00;;;17.40;99.90;;;;;;5046642;28;20041;-59
2023/08/07 10:03:37;;;;;;;2.85;0.95;;;17.60;99.90;;;;;;5043967;28;20045;-59
2023/08/07 10:06:06;;;;;;;11.77;1.50;;;17.50;99.90;;;;;;5047523;28;20060;-58
2023/08/07 10:08:35;;;;;;;5.20;1.13;;;17.50;99.90;;;;;;5045959;28;20045;-58
2023/08/07 10:11:03;;;;;;;6.88;1.65;;;17.50;99.90;;;;;;5046414;28;20049;-58
2023/08/07 10:13:31;;;;;;;4.28;1.63;;;;;;;;;;5044552;28;20040;-58
2023/08/07 10:16:07;;;;;;;7.60;1.15;;;17.40;99.90;;;;;;5045897;28;20056;-58
2023/08/07 10:18:36;;;;;;;3.47;1.10;;;17.60;99.90;;;;;;5047896;28;20056;-58
2023/08/07 10:21:05;;;;;;;3.45;0.90;;;17.70;99.90;;;;;;5045268;28;20491;-58
2023/08/07 10:23:38;;;;;;;2.80;0.90;;;17.70;99.90;;;;;;5041482;28;20045;-58
2023/08/07 10:26:10;;;;;;;2.78;0.93;;;17.80;99.90;;;;;;5037642;28;20773;-58
2023/08/07 10:28:40;;;;;;;5.45;1.15;;;17.80;99.90;;;;;;5046347;28;20067;-58
2023/08/07 10:31:10;;;;;;;3.80;0.77;;;17.90;99.90;;;;;;5046987;28;20045;-58
2023/08/07 10:33:39;;;;;;;5.45;1.13;;;17.90;99.90;;;;;;5045812;28;20052;-58
2023/08/07 10:36:10;;;;;;;3.72;1.13;;;17.90;99.90;;;;;;5047262;28;20068;-58
2023/08/07 10:38:38;;;;;;;13.95;2.38;;;17.90;99.90;;;;;;5042906;28;20103;-58
2023/08/07 10:41:12;;;;;;;7.18;0.93;;;17.90;99.90;;;;;;5043391;28;20053;-58
2023/08/07 10:43:43;;;;;;;3.47;0.90;;;18.00;99.90;;;;;;5037960;28;20044;-58
2023/08/07 10:46:23;;;;;;;5.38;1.48;;;17.90;99.90;;;;;;5034634;28;20044;-58
2023/08/07 10:48:59;;;;;;;2.80;1.10;;;18.20;99.90;;;;;;5030693;28;20044;-58
2023/08/07 10:51:32;;;;;;;3.22;1.10;;;18.30;99.90;;;;;;5035858;28;20053;-58
2023/08/07 10:54:03;;;;;;;6.57;1.27;;;18.50;99.90;;;;;;5033592;28;20056;-58
2023/08/07 10:56:32;;;;;;;7.35;1.88;;;18.50;99.90;;;;;;5040656;28;20041;-58
2023/08/07 10:59:12;;;;;;;3.65;0.90;;;18.50;99.90;;;;;;5041529;28;20052;-59
2023/08/07 11:01:50;;;;;;;7.03;1.15;;;18.50;99.90;;;;;;5041737;28;20551;-60
2023/08/07 11:04:18;;;;;;;3.72;0.85;;;18.50;99.90;;;;;;5042527;28;20507;-58
2023/08/07 11:06:49;;;;;;;4.03;0.90;;;18.70;99.90;;;;;;5041739;28;20048;-59
2023/08/07 11:09:17;;;;;;;11.05;1.23;;;18.90;99.90;;;;;;5042494;28;20060;-58
2023/08/07 11:11:47;;;;;;;3.10;0.70;;;19.10;99.90;;;;;;5038440;28;20056;-59
2023/08/07 11:14:17;;;;;;;3.38;1.13;;;19.00;99.90;;;;;;5043397;28;20049;-58
2023/08/07 11:16:47;;;;;;;3.13;1.10;;;19.10;99.90;;;;;;5036950;28;20041;-59
2023/08/07 11:19:17;;;;;;;5.65;1.25;;;19.00;99.90;;;;;;5044920;28;20044;-58
2023/08/07 11:21:44;;;;;;;3.00;1.20;;;19.00;99.90;;;;;;5042469;28;20053;-58
2023/08/07 11:24:13;;;;;;;2.65;0.93;;;18.90;99.90;;;;;;5043119;28;20075;-58
2023/08/07 11:26:43;;;;;;;5.72;1.02;;;18.80;99.90;;;;;;5040971;28;20404;-58
2023/08/07 11:29:18;;;;;;;6.70;1.40;;;18.80;99.90;;;;;;5044588;28;20549;-58
2023/08/07 11:31:50;;;;;;;3.50;0.68;;;18.80;99.90;;;;;;5042631;28;20392;-58
2023/08/07 11:34:19;;;;;;;5.28;1.42;;;19.00;99.90;;;;;;5044982;28;20399;-58
2023/08/07 11:36:47;;;;;;;3.33;0.90;;;19.10;99.90;;;;;;5045691;28;20037;-59
2023/08/07 11:39:19;;;;;;;10.10;1.02;;;19.10;99.90;;;;;;5046413;28;20519;-58
2023/08/07 11:41:47;;;;;;;3.83;1.10;;;19.30;99.90;;;;;;5024937;28;20045;-58
2023/08/07 11:44:16;;;;;;;3.90;0.80;;;19.40;99.90;;;;;;5042509;28;20045;-58
2023/08/07 11:46:44;;;;;;;4.35;1.00;;;19.50;99.90;;;;;;5042705;28;20048;-58
2023/08/07 11:49:13;;;;;;;5.28;0.90;;;19.60;99.90;;;;;;5044241;28;20049;-58
2023/08/07 11:51:43;;;;;;;3.90;1.08;;;19.60;99.90;;;;;;5043654;28;20472;-58
2023/08/07 11:54:15;;;;;;;1.65;0.80;;;19.60;99.90;;;;;;5043249;28;20803;-59
2023/08/07 11:56:45;;;;;;;3.83;0.85;;;19.60;99.90;;;;;;5045469;28;20120;-60
2023/08/07 11:59:17;;;;;;;2.20;0.88;;;19.70;99.90;;;;;;5028129;28;20522;-59
2023/08/07 12:01:46;;;;;;;7.88;1.08;;;19.70;99.90;;;;;;5040927;28;20041;-59
2023/08/07 12:04:14;;;;;;;6.63;0.88;;;19.90;99.90;;;;;;5046803;28;20068;-59
2023/08/07 12:06:53;;;;;;;3.30;0.88;;;20.10;99.90;;;;;;5045085;28;20067;-61
2023/08/07 12:09:25;;;;;;;2.65;1.20;;;20.20;99.90;;;;;;5025474;28;20049;-60
2023/08/07 12:11:59;;;;;;;4.55;1.05;;;20.50;99.90;;;;;;5025735;28;20267;-60
2023/08/07 12:14:31;;;;;;;4.20;0.95;;;21.10;99.90;;;;;;5023021;28;20052;-59
2023/08/07 12:17:02;;;;;;;6.13;1.05;;;21.00;99.90;;;;;;5018704;28;20640;-60
2023/08/07 12:19:40;;;;;;;6.15;1.20;;;21.00;99.90;;;;;;5025706;28;20456;-60
2023/08/07 12:22:11;;;;;;;4.70;1.17;;;21.00;99.90;;;;;;5026094;28;20116;-60
2023/08/07 12:24:41;;;;;;;2.25;0.80;;;20.80;99.90;;;;;;5024202;28;20052;-61
2023/08/07 12:27:09;;;;;;;3.75;0.70;;;20.60;99.90;;;;;;5021054;28;20049;-59
2023/08/07 12:29:36;;;;;;;1.83;0.82;;;20.40;99.90;;;;;;5006850;28;20049;-60
2023/08/07 12:32:05;;;;;;;3.30;0.73;;;20.20;99.90;;;;;;5025705;28;20066;-60
2023/08/07 12:34:33;;;;;;;1.75;0.70;;;20.00;99.90;;;;;;5025073;28;20536;-59
2023/08/07 12:37:22;;;;;;;2.40;0.90;;;19.90;99.90;;;;;;5025966;28;20045;-59
2023/08/07 12:39:55;;;;;;;3.20;0.80;;;19.90;99.90;;;;;;5025412;28;20049;-60
2023/08/07 12:42:26;;;;;;;4.57;0.70;;;20.00;99.90;;;;;;5024691;28;20068;-59
2023/08/07 12:44:56;;;;;;;2.92;0.80;;;20.10;99.90;;;;;;5023983;28;20381;-59
2023/08/07 12:47:26;;;;;;;6.78;0.90;;;20.10;99.90;;;;;;5025628;28;20408;-59
2023/08/07 12:49:54;;;;;;;;;;;20.10;99.90;;;;;;5020730;28;20056;-59
2023/08/07 12:52:21;;;;;;;3.03;0.90;;;20.00;99.90;;;;;;5023724;28;19921;-59
2023/08/07 12:54:49;;;;;;;7.95;1.17;;;19.90;99.90;;;;;;5022337;28;20049;-60
2023/08/07 12:57:17;;;;;;;5.28;0.80;;;19.90;99.90;;;;;;5023010;28;20485;-60